sensor_id;sensor_type;location;lat;lon;timestamp;pressure;altitude;pressure_sealevel;temperature;humidity
44131;BME280;29792;48.726;9.248;2023-03-20T00:01:21;97109.19;;;9.89;100.00
44131;BME280;29792;48.726;9.248;2023-03-20T00:03:49;97113.25;;;9.91;100.00
44131;BME280;29792;48.726;9.248;2023-03-20T00:06:19;97111.50;;;9.92;100.00
44131;BME280;29792;48.726;9.248;2023-03-20T00:08:46;97106.28;;;9.93;100.00
44131;BME280;29792;48.726;9.248;2023-03-20T00:11:27;97118.38;;;9.91;100.00
44131;BME280;29792;48.726;9.248;2023-03-20T00:14:00;97118.38;;;9.91;100.00
44131;BME280;29792;48.726;9.248;2023-03-20T00:16:36;97116.63;;;9.92;100.00
44131;BME280;29792;48.726;9.248;2023-03-20T00:19:02;97121.72;;;9.92;100.00
44131;BME280;29792;48.726;9.248;2023-03-20T00:21:28;97121.72;;;9.92;100.00
44131;BME280;29792;48.726;9.248;2023-03-20T00:23:54;97122.56;;;9.92;100.00
44131;BME280;29792;48.726;9.248;2023-03-20T00:26:24;97123.38;;;9.93;100.00
44131;BME280;29792;48.726;9.248;2023-03-20T00:28:50;97121.72;;;9.92;100.00
44131;BME280;29792;48.726;9.248;2023-03-20T00:31:27;97125.09;;;9.92;100.00
44131;BME280;29792;48.726;9.248;2023-03-20T00:33:55;97111.63;;;9.90;100.00
44131;BME280;29792;48.726;9.248;2023-03-20T00:36:21;97115.09;;;9.89;100.00
44131;BME280;29792;48.726;9.248;2023-03-20T00:38:47;97116.16;;;9.87;100.00
44131;BME280;29792;48.726;9.248;2023-03-20T00:41:30;97118.00;;;9.85;100.00
44131;BME280;29792;48.726;9.248;2023-03-20T00:43:59;97130.69;;;9.86;100.00
44131;BME280;29792;48.726;9.248;2023-03-20T00:46:27;97118.25;;;9.82;100.00
44131;BME280;29792;48.726;9.248;2023-03-20T00:48:53;97123.72;;;9.77;100.00
44131;BME280;29792;48.726;9.248;2023-03-20T00:51:19;97136.97;;;9.71;100.00
44131;BME280;29792;48.726;9.248;2023-03-20T00:53:47;97129.63;;;9.67;100.00
44131;BME280;29792;48.726;9.248;2023-03-20T00:58:52;97133.56;;;9.60;100.00
44131;BME280;29792;48.726;9.248;2023-03-20T01:01:17;97127.75;;;9.57;100.00
44131;BME280;29792;48.726;9.248;2023-03-20T01:03:42;97130.53;;;9.54;100.00
44131;BME280;29792;48.726;9.248;2023-03-20T01:06:10;97132.28;;;9.54;100.00
44131;BME280;29792;48.726;9.248;2023-03-20T01:08:36;97134.13;;;9.52;100.00
44131;BME280;29792;48.726;9.248;2023-03-20T01:11:02;97129.22;;;9.49;100.00
44131;BME280;29792;48.726;9.248;2023-03-20T01:13:29;97124.38;;;9.46;100.00
44131;BME280;29792;48.726;9.248;2023-03-20T01:15:56;97126.00;;;9.47;100.00
44131;BME280;29792;48.726;9.248;2023-03-20T01:18:23;97127.13;;;9.43;100.00
44131;BME280;29792;48.726;9.248;2023-03-20T01:20:49;97129.81;;;9.41;100.00
44131;BME280;29792;48.726;9.248;2023-03-20T01:23:17;97128.31;;;9.39;100.00
44131;BME280;29792;48.726;9.248;2023-03-20T01:25:43;97134.34;;;9.38;100.00
44131;BME280;29792;48.726;9.248;2023-03-20T01:28:17;97136.28;;;9.34;100.00
44131;BME280;29792;48.726;9.248;2023-03-20T01:30:44;97133.84;;;9.33;100.00
44131;BME280;29792;48.726;9.248;2023-03-20T01:33:18;97124.78;;;9.29;100.00
44131;BME280;29792;48.726;9.248;2023-03-20T01:35:45;97134.41;;;9.25;100.00
44131;BME280;29792;48.726;9.248;2023-03-20T01:38:23;97130.34;;;9.23;100.00
44131;BME280;29792;48.726;9.248;2023-03-20T01:41:05;97136.50;;;9.20;100.00
44131;BME280;29792;48.726;9.248;2023-03-20T01:43:32;97130.66;;;9.18;100.00
44131;BME280;29792;48.726;9.248;2023-03-20T01:46:15;97134.38;;;9.14;100.00
44131;BME280;29792;48.726;9.248;2023-03-20T01:51:26;97132.03;;;9.11;100.00
44131;BME280;29792;48.726;9.248;2023-03-20T01:53:56;97132.16;;;9.09;100.00
44131;BME280;29792;48.726;9.248;2023-03-20T01:56:23;97132.03;;;9.11;100.00
44131;BME280;29792;48.726;9.248;2023-03-20T01:58:54;97127.84;;;9.10;100.00
44131;BME280;29792;48.726;9.248;2023-03-20T02:01:23;97129.47;;;9.11;100.00
44131;BME280;29792;48.726;9.248;2023-03-20T02:03:50;97131.94;;;9.12;100.00
44131;BME280;29792;48.726;9.248;2023-03-20T02:06:16;97132.75;;;9.13;100.00
44131;BME280;29792;48.726;9.248;2023-03-20T02:08:49;97136.13;;;9.13;100.00
44131;BME280;29792;48.726;9.248;2023-03-20T02:11:18;97132.66;;;9.14;100.00
44131;BME280;29792;48.726;9.248;2023-03-20T02:13:44;97140.31;;;9.14;100.00
44131;BME280;29792;48.726;9.248;2023-03-20T02:16:12;97138.69;;;9.13;100.00
44131;BME280;29792;48.726;9.248;2023-03-20T02:18:39;97147.06;;;9.15;100.00
44131;BME280;29792;48.726;9.248;2023-03-20T02:30:05;97156.06;;;9.08;100.00
44131;BME280;29792;48.726;9.248;2023-03-20T02:36:27;97161.72;;;9.01;100.00
44131;BME280;29792;48.726;9.248;2023-03-20T02:39:12;97159.41;;;8.98;100.00
44131;BME280;29792;48.726;9.248;2023-03-20T02:42:10;97161.03;;;8.99;100.00
44131;BME280;29792;48.726;9.248;2023-03-20T02:45:11;97159.50;;;8.96;100.00
44131;BME280;29792;48.726;9.248;2023-03-20T02:47:50;97163.19;;;8.92;100.00
44131;BME280;29792;48.726;9.248;2023-03-20T02:50:32;97150.56;;;8.91;100.00
44131;BME280;29792;48.726;9.248;2023-03-20T02:55:56;97151.78;;;8.85;100.00
44131;BME280;29792;48.726;9.248;2023-03-20T02:58:30;97153.22;;;8.89;100.00
44131;BME280;29792;48.726;9.248;2023-03-20T03:01:08;97156.47;;;8.91;100.00
44131;BME280;29792;48.726;9.248;2023-03-20T03:03:39;97153.78;;;8.93;100.00
44131;BME280;29792;48.726;9.248;2023-03-20T03:06:23;97159.50;;;8.96;100.00
44131;BME280;29792;48.726;9.248;2023-03-20T03:08:57;97149.91;;;9.00;100.00
44131;BME280;29792;48.726;9.248;2023-03-20T03:11:24;97165.09;;;9.01;100.00
44131;BME280;29792;48.726;9.248;2023-03-20T03:13:52;97159.88;;;9.03;100.00
44131;BME280;29792;48.726;9.248;2023-03-20T03:16:29;97160.59;;;9.05;100.00
44131;BME280;29792;48.726;9.248;2023-03-20T03:19:04;97154.47;;;9.07;100.00
44131;BME280;29792;48.726;9.248;2023-03-20T03:21:32;97158.50;;;9.10;100.00
44131;BME280;29792;48.726;9.248;2023-03-20T03:23:59;97155.13;;;9.09;100.00
44131;BME280;29792;48.726;9.248;2023-03-20T03:26:27;97159.44;;;9.09;100.00
44131;BME280;29792;48.726;9.248;2023-03-20T03:29:13;97160.38;;;9.08;100.00
44131;BME280;29792;48.726;9.248;2023-03-20T03:31:42;97168.06;;;9.08;100.00
44131;BME280;29792;48.726;9.248;2023-03-20T03:34:13;97172.44;;;9.06;100.00
44131;BME280;29792;48.726;9.248;2023-03-20T03:42:24;97175.59;;;9.09;100.00
44131;BME280;29792;48.726;9.248;2023-03-20T03:45:06;97179.66;;;9.12;100.00
44131;BME280;29792;48.726;9.248;2023-03-20T03:47:54;97183.84;;;9.13;100.00
44131;BME280;29792;48.726;9.248;2023-03-20T03:50:25;97184.56;;;9.15;100.00
44131;BME280;29792;48.726;9.248;2023-03-20T03:52:56;97184.56;;;9.15;100.00
44131;BME280;29792;48.726;9.248;2023-03-20T03:55:25;97191.41;;;9.14;100.00
44131;BME280;29792;48.726;9.248;2023-03-20T03:57:56;97195.00;;;9.12;100.00
44131;BME280;29792;48.726;9.248;2023-03-20T04:00:25;97191.84;;;9.08;100.00
44131;BME280;29792;48.726;9.248;2023-03-20T04:02:54;97187.53;;;9.09;100.00
44131;BME280;29792;48.726;9.248;2023-03-20T04:05:21;97182.31;;;9.10;100.00
44131;BME280;29792;48.726;9.248;2023-03-20T04:07:56;97189.06;;;9.11;100.00
44131;BME280;29792;48.726;9.248;2023-03-20T04:10:22;97190.59;;;9.14;100.00
44131;BME280;29792;48.726;9.248;2023-03-20T04:12:48;97193.75;;;9.17;100.00
44131;BME280;29792;48.726;9.248;2023-03-20T04:15:14;97199.56;;;9.19;100.00
44131;BME280;29792;48.726;9.248;2023-03-20T04:17:40;97195.38;;;9.18;100.00
44131;BME280;29792;48.726;9.248;2023-03-20T04:20:07;97197.00;;;9.19;100.00
44131;BME280;29792;48.726;9.248;2023-03-20T04:22:33;97199.66;;;9.18;100.00
44131;BME280;29792;48.726;9.248;2023-03-20T04:25:03;97201.41;;;9.17;100.00
44131;BME280;29792;48.726;9.248;2023-03-20T04:27:29;97201.53;;;9.16;100.00
44131;BME280;29792;48.726;9.248;2023-03-20T04:29:54;97198.16;;;9.15;100.00
44131;BME280;29792;48.726;9.248;2023-03-20T04:32:20;97199.78;;;9.16;100.00
44131;BME280;29792;48.726;9.248;2023-03-20T04:34:46;97187.81;;;9.17;100.00
44131;BME280;29792;48.726;9.248;2023-03-20T04:37:12;97186.06;;;9.17;100.00
44131;BME280;29792;48.726;9.248;2023-03-20T04:39:37;97189.53;;;9.16;100.00
44131;BME280;29792;48.726;9.248;2023-03-20T04:42:04;97181.88;;;9.16;100.00
44131;BME280;29792;48.726;9.248;2023-03-20T04:44:29;97177.00;;;9.13;100.00
44131;BME280;29792;48.726;9.248;2023-03-20T04:46:55;97177.22;;;9.10;100.00
44131;BME280;29792;48.726;9.248;2023-03-20T04:49:20;97180.00;;;9.07;100.00
44131;BME280;29792;48.726;9.248;2023-03-20T04:51:45;97179.28;;;9.05;100.00
44131;BME280;29792;48.726;9.248;2023-03-20T04:54:11;97176.75;;;9.05;100.00
44131;BME280;29792;48.726;9.248;2023-03-20T04:56:36;97188.59;;;9.06;100.00
44131;BME280;29792;48.726;9.248;2023-03-20T04:59:01;97192.78;;;9.07;100.00
44131;BME280;29792;48.726;9.248;2023-03-20T05:01:27;97195.34;;;9.07;100.00
44131;BME280;29792;48.726;9.248;2023-03-20T05:03:52;97191.03;;;9.08;100.00
44131;BME280;29792;48.726;9.248;2023-03-20T05:06:21;97197.91;;;9.07;100.00
44131;BME280;29792;48.726;9.248;2023-03-20T05:08:47;97196.94;;;9.08;100.00
44131;BME280;29792;48.726;9.248;2023-03-20T05:11:12;97203.69;;;9.09;100.00
44131;BME280;29792;48.726;9.248;2023-03-20T05:13:37;97206.97;;;9.11;100.00
44131;BME280;29792;48.726;9.248;2023-03-20T05:16:02;97206.16;;;9.11;100.00
44131;BME280;29792;48.726;9.248;2023-03-20T05:18:28;97203.59;;;9.11;100.00
44131;BME280;29792;48.726;9.248;2023-03-20T05:20:53;97213.00;;;9.10;100.00
44131;BME280;29792;48.726;9.248;2023-03-20T05:23:18;97213.81;;;9.11;100.00
44131;BME280;29792;48.726;9.248;2023-03-20T05:25:44;97222.41;;;9.10;100.00
44131;BME280;29792;48.726;9.248;2023-03-20T05:28:09;97225.41;;;9.04;100.00
44131;BME280;29792;48.726;9.248;2023-03-20T05:30:34;97234.31;;;8.98;100.00
44131;BME280;29792;48.726;9.248;2023-03-20T05:32:59;97229.41;;;8.95;100.00
44131;BME280;29792;48.726;9.248;2023-03-20T05:35:25;97230.22;;;8.96;100.00
44131;BME280;29792;48.726;9.248;2023-03-20T05:37:50;97227.34;;;9.00;100.00
44131;BME280;29792;48.726;9.248;2023-03-20T05:40:15;97216.19;;;9.01;100.00
44131;BME280;29792;48.726;9.248;2023-03-20T05:42:43;97219.25;;;9.06;100.00
44131;BME280;29792;48.726;9.248;2023-03-20T05:45:09;97204.75;;;9.07;100.00
44131;BME280;29792;48.726;9.248;2023-03-20T05:47:34;97207.16;;;9.08;100.00
44131;BME280;29792;48.726;9.248;2023-03-20T05:50:00;97216.59;;;9.08;100.00
44131;BME280;29792;48.726;9.248;2023-03-20T05:52:25;97219.16;;;9.08;100.00
44131;BME280;29792;48.726;9.248;2023-03-20T05:54:50;97224.84;;;9.11;100.00
44131;BME280;29792;48.726;9.248;2023-03-20T05:57:16;97221.38;;;9.12;100.00
44131;BME280;29792;48.726;9.248;2023-03-20T05:59:42;97229.53;;;9.17;100.00
44131;BME280;29792;48.726;9.248;2023-03-20T06:02:07;97231.16;;;9.18;100.00
44131;BME280;29792;48.726;9.248;2023-03-20T06:04:32;97235.97;;;9.23;100.00
44131;BME280;29792;48.726;9.248;2023-03-20T06:06:59;97240.84;;;9.26;100.00
44131;BME280;29792;48.726;9.248;2023-03-20T06:09:24;97244.09;;;9.28;100.00
44131;BME280;29792;48.726;9.248;2023-03-20T06:11:50;97244.09;;;9.28;100.00
44131;BME280;29792;48.726;9.248;2023-03-20T06:14:15;97244.91;;;9.29;100.00
44131;BME280;29792;48.726;9.248;2023-03-20T06:16:40;97245.63;;;9.31;100.00
44131;BME280;29792;48.726;9.248;2023-03-20T06:19:05;97241.22;;;9.33;100.00
44131;BME280;29792;48.726;9.248;2023-03-20T06:21:31;97242.97;;;9.32;100.00
44131;BME280;29792;48.726;9.248;2023-03-20T06:23:56;97253.78;;;9.36;100.00
44131;BME280;29792;48.726;9.248;2023-03-20T06:26:24;97249.38;;;9.38;100.00
44131;BME280;29792;48.726;9.248;2023-03-20T06:28:49;97252.53;;;9.41;100.00
44131;BME280;29792;48.726;9.248;2023-03-20T06:31:15;97248.84;;;9.45;100.00
44131;BME280;29792;48.726;9.248;2023-03-20T06:33:40;97249.53;;;9.47;100.00
44131;BME280;29792;48.726;9.248;2023-03-20T06:36:05;97248.84;;;9.45;100.00
44131;BME280;29792;48.726;9.248;2023-03-20T06:38:31;97255.59;;;9.46;100.00
44131;BME280;29792;48.726;9.248;2023-03-20T06:40:56;97251.28;;;9.47;100.00
44131;BME280;29792;48.726;9.248;2023-03-20T06:43:21;97248.28;;;9.53;100.00
44131;BME280;29792;48.726;9.248;2023-03-20T06:45:47;97246.09;;;9.60;100.00
44131;BME280;29792;48.726;9.248;2023-03-20T06:48:12;97239.72;;;9.65;100.00
44131;BME280;29792;48.726;9.248;2023-03-20T06:50:38;97245.06;;;9.73;100.00
44131;BME280;29792;48.726;9.248;2023-03-20T06:53:03;97242.91;;;9.80;100.00
44131;BME280;29792;48.726;9.248;2023-03-20T06:55:28;97247.69;;;9.84;100.00
44131;BME280;29792;48.726;9.248;2023-03-20T06:57:54;97247.13;;;9.92;100.00
44131;BME280;29792;48.726;9.248;2023-03-20T07:00:19;97244.22;;;9.97;100.00
44131;BME280;29792;48.726;9.248;2023-03-20T07:02:46;97242.13;;;10.02;100.00
44131;BME280;29792;48.726;9.248;2023-03-20T07:05:12;97252.84;;;10.07;100.00
44131;BME280;29792;48.726;9.248;2023-03-20T07:07:37;97255.66;;;10.15;100.00
44131;BME280;29792;48.726;9.248;2023-03-20T07:10:03;97248.50;;;10.20;100.00
44131;BME280;29792;48.726;9.248;2023-03-20T07:12:29;97256.53;;;10.26;100.00
44131;BME280;29792;48.726;9.248;2023-03-20T07:14:54;97253.38;;;10.34;100.00
44131;BME280;29792;48.726;9.248;2023-03-20T07:17:20;97254.06;;;10.47;100.00
44131;BME280;29792;48.726;9.248;2023-03-20T07:19:46;97251.16;;;10.63;100.00
44131;BME280;29792;48.726;9.248;2023-03-20T07:22:19;97258.75;;;10.76;100.00
44131;BME280;29792;48.726;9.248;2023-03-20T07:24:46;97262.34;;;10.84;100.00
44131;BME280;29792;48.726;9.248;2023-03-20T07:27:11;97271.41;;;10.88;100.00
44131;BME280;29792;48.726;9.248;2023-03-20T07:29:36;97269.09;;;10.85;100.00
44131;BME280;29792;48.726;9.248;2023-03-20T07:32:02;97279.47;;;10.84;100.00
44131;BME280;29792;48.726;9.248;2023-03-20T07:34:27;97272.59;;;10.84;100.00
44131;BME280;29792;48.726;9.248;2023-03-20T07:36:52;97278.66;;;10.83;100.00
44131;BME280;29792;48.726;9.248;2023-03-20T07:39:18;97277.72;;;10.73;99.49
44131;BME280;29792;48.726;9.248;2023-03-20T07:41:43;97278.31;;;10.65;99.84
44131;BME280;29792;48.726;9.248;2023-03-20T07:44:08;97276.91;;;10.61;99.88
44131;BME280;29792;48.726;9.248;2023-03-20T07:46:34;97275.03;;;10.63;100.00
44131;BME280;29792;48.726;9.248;2023-03-20T07:49:00;97266.19;;;10.67;100.00
44131;BME280;29792;48.726;9.248;2023-03-20T07:51:25;97275.50;;;10.80;100.00
44131;BME280;29792;48.726;9.248;2023-03-20T07:53:50;97273.59;;;11.04;100.00
44131;BME280;29792;48.726;9.248;2023-03-20T07:56:16;97274.50;;;11.25;100.00
44131;BME280;29792;48.726;9.248;2023-03-20T07:58:41;97271.56;;;11.41;99.65
44131;BME280;29792;48.726;9.248;2023-03-20T08:01:06;97274.31;;;11.49;99.28
44131;BME280;29792;48.726;9.248;2023-03-20T08:03:31;97260.41;;;11.52;98.40
44131;BME280;29792;48.726;9.248;2023-03-20T08:05:58;97266.44;;;11.62;98.03
44131;BME280;29792;48.726;9.248;2023-03-20T08:08:23;97269.72;;;11.75;96.28
44131;BME280;29792;48.726;9.248;2023-03-20T08:10:48;97268.19;;;11.93;96.29
44131;BME280;29792;48.726;9.248;2023-03-20T08:13:14;97265.19;;;12.09;96.17
44131;BME280;29792;48.726;9.248;2023-03-20T08:15:39;97270.56;;;12.27;96.20
44131;BME280;29792;48.726;9.248;2023-03-20T08:18:05;97266.31;;;12.37;94.68
44131;BME280;29792;48.726;9.248;2023-03-20T08:20:30;97264.16;;;12.42;92.65
44131;BME280;29792;48.726;9.248;2023-03-20T08:22:56;97265.84;;;12.52;92.61
44131;BME280;29792;48.726;9.248;2023-03-20T08:25:21;97275.72;;;12.57;91.27
44131;BME280;29792;48.726;9.248;2023-03-20T08:27:47;97270.72;;;12.55;90.54
44131;BME280;29792;48.726;9.248;2023-03-20T08:30:12;97276.75;;;12.45;88.12
44131;BME280;29792;48.726;9.248;2023-03-20T08:32:38;97275.59;;;12.28;86.94
44131;BME280;29792;48.726;9.248;2023-03-20T08:35:04;97281.41;;;12.09;86.32
44131;BME280;29792;48.726;9.248;2023-03-20T08:37:29;97273.78;;;11.98;86.93
44131;BME280;29792;48.726;9.248;2023-03-20T08:39:55;97278.75;;;11.90;87.38
44131;BME280;29792;48.726;9.248;2023-03-20T08:42:20;97275.22;;;11.91;87.65
44131;BME280;29792;48.726;9.248;2023-03-20T08:44:45;97280.59;;;11.88;86.98
44131;BME280;29792;48.726;9.248;2023-03-20T08:47:12;97278.84;;;11.89;87.62
44131;BME280;29792;48.726;9.248;2023-03-20T08:49:37;97280.78;;;11.96;88.74
44131;BME280;29792;48.726;9.248;2023-03-20T08:52:03;97282.03;;;12.02;88.21
44131;BME280;29792;48.726;9.248;2023-03-20T08:54:28;97283.44;;;12.06;87.98
44131;BME280;29792;48.726;9.248;2023-03-20T08:56:54;97283.31;;;12.07;87.86
44131;BME280;29792;48.726;9.248;2023-03-20T08:59:20;97276.22;;;12.20;88.93
44131;BME280;29792;48.726;9.248;2023-03-20T09:01:46;97269.88;;;12.24;87.10
44131;BME280;29792;48.726;9.248;2023-03-20T09:04:12;97274.13;;;12.35;86.96
44131;BME280;29792;48.726;9.248;2023-03-20T09:06:38;97274.78;;;12.58;88.42
44131;BME280;29792;48.726;9.248;2023-03-20T09:09:03;97277.03;;;12.82;86.92
44131;BME280;29792;48.726;9.248;2023-03-20T09:11:29;97274.28;;;13.04;85.64
44131;BME280;29792;48.726;9.248;2023-03-20T09:13:54;97277.03;;;13.22;85.92
44131;BME280;29792;48.726;9.248;2023-03-20T09:16:20;97280.50;;;13.51;85.20
44131;BME280;29792;48.726;9.248;2023-03-20T09:18:45;97284.81;;;13.80;84.81
44131;BME280;29792;48.726;9.248;2023-03-20T09:21:10;97287.53;;;13.97;80.68
44131;BME280;29792;48.726;9.248;2023-03-20T09:23:35;97287.38;;;14.08;78.17
44131;BME280;29792;48.726;9.248;2023-03-20T09:26:01;97291.31;;;14.12;76.91
44131;BME280;29792;48.726;9.248;2023-03-20T09:28:26;97291.28;;;14.22;76.63
44131;BME280;29792;48.726;9.248;2023-03-20T09:30:56;97293.47;;;14.17;75.56
44131;BME280;29792;48.726;9.248;2023-03-20T09:33:22;97295.13;;;14.08;73.37
44131;BME280;29792;48.726;9.248;2023-03-20T09:35:47;97291.34;;;13.93;73.92
44131;BME280;29792;48.726;9.248;2023-03-20T09:38:12;97289.03;;;14.00;75.79
44131;BME280;29792;48.726;9.248;2023-03-20T09:49:12;97284.50;;;14.31;72.70
44131;BME280;29792;48.726;9.248;2023-03-20T09:51:47;97285.31;;;14.41;72.34
44131;BME280;29792;48.726;9.248;2023-03-20T09:54:34;97284.19;;;14.53;71.45
44131;BME280;29792;48.726;9.248;2023-03-20T09:57:02;97277.38;;;14.62;72.30
44131;BME280;29792;48.726;9.248;2023-03-20T09:59:28;97282.63;;;14.70;72.21
44131;BME280;29792;48.726;9.248;2023-03-20T10:01:59;97275.78;;;14.88;71.60
44131;BME280;29792;48.726;9.248;2023-03-20T10:04:28;97273.16;;;14.98;71.38
44131;BME280;29792;48.726;9.248;2023-03-20T10:06:54;97278.31;;;14.98;68.48
44131;BME280;29792;48.726;9.248;2023-03-20T10:09:23;97287.16;;;14.95;69.06
44131;BME280;29792;48.726;9.248;2023-03-20T10:14:23;97288.13;;;14.57;65.81
44131;BME280;29792;48.726;9.248;2023-03-20T10:19:48;97294.81;;;14.21;68.42
44131;BME280;29792;48.726;9.248;2023-03-20T10:22:28;97288.84;;;14.11;69.92
44131;BME280;29792;48.726;9.248;2023-03-20T10:25:03;97297.13;;;14.05;69.53
44131;BME280;29792;48.726;9.248;2023-03-20T10:27:36;97299.72;;;13.95;69.09
44131;BME280;29792;48.726;9.248;2023-03-20T10:30:30;97303.00;;;13.78;69.10
44131;BME280;29792;48.726;9.248;2023-03-20T10:35:45;97301.22;;;13.59;69.99
44131;BME280;29792;48.726;9.248;2023-03-20T10:40:51;97290.78;;;13.51;72.15
44131;BME280;29792;48.726;9.248;2023-03-20T10:43:24;97295.81;;;13.53;71.20
44131;BME280;29792;48.726;9.248;2023-03-20T10:48:24;97300.00;;;13.54;70.00
44131;BME280;29792;48.726;9.248;2023-03-20T10:50:57;97301.22;;;13.50;71.89
44131;BME280;29792;48.726;9.248;2023-03-20T10:53:46;97288.06;;;13.43;71.17
44131;BME280;29792;48.726;9.248;2023-03-20T10:56:35;97296.16;;;13.38;71.61
44131;BME280;29792;48.726;9.248;2023-03-20T10:59:09;97282.78;;;13.35;70.85
44131;BME280;29792;48.726;9.248;2023-03-20T11:01:36;97277.88;;;13.32;70.41
44131;BME280;29792;48.726;9.248;2023-03-20T11:04:01;97276.25;;;13.31;70.82
44131;BME280;29792;48.726;9.248;2023-03-20T11:06:31;97281.28;;;13.32;71.39
44131;BME280;29792;48.726;9.248;2023-03-20T11:09:18;97282.22;;;13.31;70.13
44131;BME280;29792;48.726;9.248;2023-03-20T11:11:51;97277.19;;;13.30;69.77
44131;BME280;29792;48.726;9.248;2023-03-20T11:14:19;97286.81;;;13.28;70.17
44131;BME280;29792;48.726;9.248;2023-03-20T11:16:52;97276.78;;;13.25;70.39
44131;BME280;29792;48.726;9.248;2023-03-20T11:19:19;97281.81;;;13.26;70.83
44131;BME280;29792;48.726;9.248;2023-03-20T11:21:51;97280.75;;;13.29;71.39
44131;BME280;29792;48.726;9.248;2023-03-20T11:24:41;97281.41;;;13.31;71.33
44131;BME280;29792;48.726;9.248;2023-03-20T11:27:11;97281.25;;;13.23;70.02
44131;BME280;29792;48.726;9.248;2023-03-20T11:29:38;97280.44;;;13.22;71.04
44131;BME280;29792;48.726;9.248;2023-03-20T11:32:10;97278.00;;;13.30;70.96
44131;BME280;29792;48.726;9.248;2023-03-20T11:34:41;97283.47;;;13.37;71.31
44131;BME280;29792;48.726;9.248;2023-03-20T11:37:27;97286.03;;;13.37;69.63
44131;BME280;29792;48.726;9.248;2023-03-20T11:42:37;97278.31;;;13.37;70.84
44131;BME280;29792;48.726;9.248;2023-03-20T11:45:15;97273.81;;;13.39;71.23
44131;BME280;29792;48.726;9.248;2023-03-20T11:47:41;97281.16;;;13.34;72.41
44131;BME280;29792;48.726;9.248;2023-03-20T11:52:57;97274.34;;;13.23;74.07
44131;BME280;29792;48.726;9.248;2023-03-20T11:55:30;97280.59;;;13.21;74.79
44131;BME280;29792;48.726;9.248;2023-03-20T11:58:03;97275.81;;;13.16;75.15
44131;BME280;29792;48.726;9.248;2023-03-20T12:00:36;97276.09;;;13.13;75.19
44131;BME280;29792;48.726;9.248;2023-03-20T12:03:03;97276.19;;;13.12;75.68
44131;BME280;29792;48.726;9.248;2023-03-20T12:05:31;97272.25;;;13.08;76.20
44131;BME280;29792;48.726;9.248;2023-03-20T12:08:21;97269.97;;;13.05;77.06
44131;BME280;29792;48.726;9.248;2023-03-20T12:10:58;97269.97;;;13.05;77.24
44131;BME280;29792;48.726;9.248;2023-03-20T12:13:28;97271.06;;;13.12;77.92
44131;BME280;29792;48.726;9.248;2023-03-20T12:16:03;97265.97;;;13.21;78.35
44131;BME280;29792;48.726;9.248;2023-03-20T12:18:42;97269.91;;;13.35;78.94
44131;BME280;29792;48.726;9.248;2023-03-20T12:21:14;97268.97;;;13.55;78.55
44131;BME280;29792;48.726;9.248;2023-03-20T12:23:50;97261.38;;;13.83;77.96
44131;BME280;29792;48.726;9.248;2023-03-20T12:26:18;97263.38;;;14.18;77.39
44131;BME280;29792;48.726;9.248;2023-03-20T12:31:20;97253.34;;;14.98;74.09
44131;BME280;29792;48.726;9.248;2023-03-20T12:36:35;97244.47;;;15.81;70.51
44131;BME280;29792;48.726;9.248;2023-03-20T12:39:05;97242.50;;;16.19;69.39
44131;BME280;29792;48.726;9.248;2023-03-20T12:44:33;97237.53;;;16.59;64.47
44131;BME280;29792;48.726;9.248;2023-03-20T12:47:17;97237.47;;;16.43;62.68
44131;BME280;29792;48.726;9.248;2023-03-20T12:49:58;97233.78;;;16.20;62.40
44131;BME280;29792;48.726;9.248;2023-03-20T12:58:05;97226.69;;;15.78;63.70
44131;BME280;29792;48.726;9.248;2023-03-20T13:00:41;97232.16;;;15.75;63.67
44131;BME280;29792;48.726;9.248;2023-03-20T13:06:07;97223.09;;;15.71;64.85
44131;BME280;29792;48.726;9.248;2023-03-20T13:11:44;97220.03;;;15.93;63.51
44131;BME280;29792;48.726;9.248;2023-03-20T13:14:44;97220.72;;;15.78;62.58
44131;BME280;29792;48.726;9.248;2023-03-20T13:17:15;97220.13;;;15.66;63.17
44131;BME280;29792;48.726;9.248;2023-03-20T13:25:28;97209.94;;;15.47;63.28
44131;BME280;29792;48.726;9.248;2023-03-20T13:28:01;97202.78;;;15.41;64.16
44131;BME280;29792;48.726;9.248;2023-03-20T13:30:36;97206.41;;;15.30;63.91
44131;BME280;29792;48.726;9.248;2023-03-20T13:36:04;97205.22;;;15.07;64.15
44131;BME280;29792;48.726;9.248;2023-03-20T13:38:36;97196.81;;;15.05;64.03
44131;BME280;29792;48.726;9.248;2023-03-20T13:41:07;97191.78;;;15.03;64.40
44131;BME280;29792;48.726;9.248;2023-03-20T13:46:16;97189.25;;;14.94;66.96
44131;BME280;29792;48.726;9.248;2023-03-20T13:48:43;97183.16;;;14.95;67.80
44131;BME280;29792;48.726;9.248;2023-03-20T13:51:29;97191.69;;;14.95;66.35
44131;BME280;29792;48.726;9.248;2023-03-20T13:54:25;97185.63;;;14.86;66.14
44131;BME280;29792;48.726;9.248;2023-03-20T13:59:52;97176.81;;;14.89;66.41
44131;BME280;29792;48.726;9.248;2023-03-20T14:02:26;97176.09;;;14.97;66.53
44131;BME280;29792;48.726;9.248;2023-03-20T14:05:36;97170.47;;;15.01;66.01
44131;BME280;29792;48.726;9.248;2023-03-20T14:07:54;97168.56;;;15.03;66.71
44131;BME280;29792;48.726;9.248;2023-03-20T14:13:18;97169.31;;;15.13;65.65
44131;BME280;29792;48.726;9.248;2023-03-20T14:15:52;97163.19;;;15.14;65.19
44131;BME280;29792;48.726;9.248;2023-03-20T14:18:19;97163.84;;;15.16;65.26
44131;BME280;29792;48.726;9.248;2023-03-20T14:21:01;97164.16;;;15.13;64.85
44131;BME280;29792;48.726;9.248;2023-03-20T14:23:33;97165.56;;;15.08;65.46
44131;BME280;29792;48.726;9.248;2023-03-20T14:25:59;97160.97;;;15.02;65.60
44131;BME280;29792;48.726;9.248;2023-03-20T14:28:28;97168.06;;;15.00;65.77
44131;BME280;29792;48.726;9.248;2023-03-20T14:36:54;97169.94;;;14.80;65.21
44131;BME280;29792;48.726;9.248;2023-03-20T14:47:28;97160.75;;;14.95;66.56
44131;BME280;29792;48.726;9.248;2023-03-20T14:52:31;97169.00;;;14.99;65.57
44131;BME280;29792;48.726;9.248;2023-03-20T14:55:35;97162.97;;;14.90;65.08
44131;BME280;29792;48.726;9.248;2023-03-20T14:58:03;97163.84;;;14.81;64.27
44131;BME280;29792;48.726;9.248;2023-03-20T15:00:34;97161.97;;;14.73;65.47